Time;durP1;ratioP1;P1;durP2;ratioP2;P2;SDS_P1;SDS_P2;PMS_P1;PMS_P2;Temp;Humidity;BMP_temperature;BMP_pressure;BME280_temperature;BME280_humidity;BME280_pressure;Samples;Min_cycle;Max_cycle;Signal;HPM_P1;HPM_P2
2022/04/21 00:01:00;;;;;;;14.07;7.40;;;8.30;99.90;7.50;100151;;;;575729;245;24120;-79
2022/04/21 00:03:28;;;;;;;16.63;7.33;;;8.20;99.90;7.40;100152;;;;575739;245;24097;-78
2022/04/21 00:05:56;;;;;;;13.00;7.13;;;8.20;99.90;7.40;100147;;;;575499;245;24085;-78
2022/04/21 00:08:24;;;;;;;13.57;7.17;;;8.20;99.90;7.40;100147;;;;575951;245;24107;-81
2022/04/21 00:10:52;;;;;;;14.70;7.43;;;8.20;99.90;7.40;100154;;;;575658;245;24121;-78
2022/04/21 00:13:21;;;;;;;19.57;7.43;;;8.20;99.90;7.40;100145;;;;575724;245;24148;-76
2022/04/21 00:15:49;;;;;;;13.37;7.30;;;8.20;99.90;7.40;100144;;;;575656;245;24100;-80
2022/04/21 00:18:18;;;;;;;16.23;7.40;;;8.20;99.90;7.40;100146;;;;575191;246;24089;-76
2022/04/21 00:20:46;;;;;;;13.20;7.73;;;8.20;99.90;7.40;100147;;;;575175;246;24168;-76
2022/04/21 00:23:26;;;;;;;17.93;7.53;;;8.20;99.90;7.40;100152;;;;574963;246;24081;-77
2022/04/21 00:26:00;;;;;;;12.67;7.43;;;8.20;99.90;7.40;100147;;;;575452;246;24140;-78
2022/04/21 00:28:26;;;;;;;9.97;7.07;;;8.20;99.90;7.40;100145;;;;574674;246;24155;-77
2022/04/21 00:30:53;;;;;;;13.43;7.40;;;8.20;99.90;7.50;100148;;;;575263;246;24089;-78
2022/04/21 00:33:21;;;;;;;12.07;6.70;;;8.20;99.90;7.50;100143;;;;575222;246;24139;-78
2022/04/21 00:35:49;;;;;;;8.57;5.80;;;8.30;99.90;7.50;100142;;;;574972;246;24081;-79
2022/04/21 00:38:17;;;;;;;10.60;6.73;;;8.30;99.90;7.50;100149;;;;575083;246;24127;-79
2022/04/21 00:40:45;;;;;;;15.57;6.87;;;8.30;99.90;7.60;100148;;;;574924;246;24081;-78
2022/04/21 00:43:13;;;;;;;14.37;6.43;;;8.40;99.90;7.60;100154;;;;574796;246;24089;-81
2022/04/21 00:45:41;;;;;;;7.70;5.67;;;8.40;99.90;7.60;100148;;;;574827;246;24127;-77
2022/04/21 00:48:09;;;;;;;9.50;6.30;;;8.40;99.90;7.60;100142;;;;574686;246;24078;-77
2022/04/21 00:50:37;;;;;;;14.73;6.30;;;8.40;99.90;7.70;100144;;;;574946;246;24104;-82
2022/04/21 00:53:05;;;;;;;10.97;5.80;;;8.50;99.90;7.70;100147;;;;574663;246;24150;-80
2022/04/21 00:55:34;;;;;;;10.50;5.30;;;8.50;99.90;7.70;100143;;;;575224;246;24107;-79
2022/04/21 00:58:03;;;;;;;9.10;5.23;;;8.50;99.90;7.70;100138;;;;575025;246;24257;-80
2022/04/21 01:00:30;;;;;;;7.07;5.07;;;8.50;99.90;7.70;100140;;;;575248;246;24133;-81
2022/04/21 01:03:02;;;;;;;11.83;4.77;;;8.50;99.90;7.70;100138;;;;574800;246;24081;-78
2022/04/21 01:05:32;;;;;;;10.30;5.40;;;8.60;99.90;7.80;100142;;;;574460;246;24141;-79
2022/04/21 01:08:00;;;;;;;7.70;5.03;;;8.60;99.90;7.80;100137;;;;574640;246;24152;-76
2022/04/21 01:10:25;;;;;;;7.53;4.57;;;8.60;99.90;7.80;100136;;;;574503;246;24092;-78
2022/04/21 01:12:54;;;;;;;12.33;6.03;;;8.70;99.90;7.80;100143;;;;576387;245;24108;-78
2022/04/21 01:15:22;;;;;;;7.47;4.23;;;8.70;99.90;7.90;100144;;;;575803;245;24118;-79
2022/04/21 01:17:49;;;;;;;5.60;4.20;;;8.70;99.90;7.90;100146;;;;575588;245;24106;-83
2022/04/21 01:20:21;;;;;;;8.65;5.70;;;8.80;99.90;8.00;100143;;;;570567;245;35260;-80
2022/04/21 01:22:49;;;;;;;9.00;5.50;;;8.80;99.90;8.00;100137;;;;575005;245;24117;-80
2022/04/21 01:25:18;;;;;;;10.27;4.77;;;8.90;99.90;8.10;100142;;;;575534;245;24096;-82
2022/04/21 01:27:45;;;;;;;5.43;3.90;;;8.90;99.90;8.10;100142;;;;575543;245;24086;-77
2022/04/21 01:30:16;;;;;;;7.33;3.97;;;8.90;99.90;8.20;100149;;;;575189;246;24096;-85
2022/04/21 01:32:44;;;;;;;6.00;3.80;;;9.00;99.90;8.20;100141;;;;574811;246;24176;-82
2022/04/21 01:35:12;;;;;;;5.53;4.63;;;9.00;99.90;8.20;100145;;;;574847;246;24105;-83
2022/04/21 01:43:12;;;;;;;8.30;4.97;;;9.00;99.90;8.20;100142;;;;574376;246;24134;-76
2022/04/21 01:45:41;;;;;;;6.90;4.00;;;9.00;99.90;8.30;100145;;;;574813;246;24085;-76
2022/04/21 01:48:11;;;;;;;6.03;3.33;;;9.10;99.90;8.30;100145;;;;574685;246;24183;-80
2022/04/21 01:50:40;;;;;;;10.33;3.93;;;9.10;99.90;8.30;100141;;;;573076;246;24097;-79
2022/04/21 01:53:05;;;;;;;6.07;4.20;;;9.20;99.90;8.40;100129;;;;574596;246;24140;-76
2022/04/21 01:55:32;;;;;;;6.77;4.30;;;9.20;99.90;8.40;100126;;;;583236;246;24260;-77
2022/04/21 01:58:00;;;;;;;5.23;3.57;;;9.20;99.90;8.40;100127;;;;574751;246;24186;-76
2022/04/21 02:00:32;;;;;;;5.13;3.70;;;9.20;99.90;8.50;100134;;;;574722;246;24086;-81
2022/04/21 02:02:56;;;;;;;6.83;4.07;;;9.30;99.90;8.50;100130;;;;582774;246;24134;-77
2022/04/21 02:05:24;;;;;;;4.83;3.40;;;9.30;99.90;8.50;100131;;;;574453;246;24089;-79
2022/04/21 02:07:52;;;;;;;5.90;3.00;;;9.30;99.90;8.50;100130;;;;575053;246;24191;-77
2022/04/21 02:10:24;;;;;;;4.43;3.23;;;9.30;99.90;8.50;100128;;;;575030;246;24097;-76
2022/04/21 02:12:51;;;;;;;4.70;3.27;;;9.30;99.90;8.50;100129;;;;574914;246;24131;-77
2022/04/21 02:15:23;;;;;;;5.07;3.47;;;9.30;99.90;8.50;100135;;;;574766;246;24173;-77
2022/04/21 02:17:47;;;;;;;6.67;3.40;;;9.30;99.90;8.50;100132;;;;574584;246;24133;-80
2022/04/21 02:20:19;;;;;;;10.30;3.97;;;9.30;99.90;8.50;100129;;;;574821;246;24123;-78
2022/04/21 02:22:46;;;;;;;5.73;3.20;;;9.40;99.90;8.60;100132;;;;574434;245;24107;-79
2022/04/21 02:25:17;;;;;;;3.80;3.43;;;9.40;99.90;8.60;100140;;;;576154;245;24187;-78
2022/04/21 02:27:42;;;;;;;3.60;3.30;;;9.40;99.90;8.60;100137;;;;581410;245;24129;-79
2022/04/21 02:30:10;;;;;;;3.43;3.17;;;9.40;99.90;8.60;100137;;;;575216;245;24354;-79
2022/04/21 02:32:37;;;;;;;7.10;3.63;;;9.40;99.90;8.60;100134;;;;575389;245;24171;-82
2022/04/21 02:35:06;;;;;;;6.47;3.83;;;9.40;99.90;8.70;100131;;;;575139;245;24100;-78
2022/04/21 02:37:39;;;;;;;6.60;3.77;;;9.50;99.90;8.70;100140;;;;575199;245;24177;-76
2022/04/21 02:40:08;;;;;;;8.73;3.70;;;9.50;99.90;8.70;100138;;;;574929;245;24119;-79
2022/04/21 02:42:32;;;;;;;5.00;3.57;;;9.50;99.90;8.70;100138;;;;574965;246;25307;-78
2022/04/21 02:45:00;;;;;;;7.43;3.43;;;9.50;99.90;8.70;100140;;;;575620;246;24081;-79
2022/04/21 02:47:28;;;;;;;6.37;3.60;;;9.50;99.90;8.70;100132;;;;575413;246;24081;-77
2022/04/21 02:49:59;;;;;;;4.90;3.87;;;9.50;99.90;8.70;100144;;;;574978;246;24132;-81
2022/04/21 02:52:24;;;;;;;4.37;3.20;;;9.50;99.90;8.70;100144;;;;583332;246;24087;-77
2022/04/21 02:57:38;;;;;;;7.72;4.75;;;9.50;99.90;8.70;100142;;;;569786;246;35380;-82
2022/04/21 03:00:06;;;;;;;3.97;3.57;;;9.50;99.90;8.60;100154;;;;574694;246;24094;-78
2022/04/21 03:02:34;;;;;;;5.53;3.93;;;9.50;99.90;8.70;100153;;;;574599;246;24076;-79
2022/04/21 03:05:02;;;;;;;4.60;3.77;;;9.50;99.90;8.70;100145;;;;575134;246;24180;-81
2022/04/21 03:07:31;;;;;;;6.67;3.80;;;9.50;99.90;8.70;100145;;;;574377;246;24099;-78
2022/04/21 03:09:59;;;;;;;5.73;3.77;;;9.50;99.90;8.70;100149;;;;574711;246;24116;-77
2022/04/21 03:12:28;;;;;;;5.97;4.40;;;9.50;99.90;8.70;100143;;;;575117;246;24118;-83
2022/04/21 03:14:58;;;;;;;4.23;3.73;;;9.50;99.90;8.70;100143;;;;575121;246;24086;-83
2022/04/21 03:17:23;;;;;;;4.80;3.57;;;9.60;99.90;8.70;100146;;;;581263;246;24164;-77
2022/04/21 03:19:50;;;;;;;5.17;3.57;;;9.60;99.90;8.80;100148;;;;574852;246;24113;-77
2022/04/21 03:25:07;;;;;;;5.63;3.07;;;9.60;99.90;8.80;100148;;;;574861;246;24121;-76
2022/04/21 03:27:35;;;;;;;9.70;4.10;;;9.60;99.90;8.80;100147;;;;574761;246;24148;-83
2022/04/21 03:30:00;;;;;;;5.60;3.30;;;9.60;99.90;8.80;100152;;;;574718;246;24116;-82
2022/04/21 03:32:31;;;;;;;5.50;3.83;;;9.60;99.90;8.80;100149;;;;574789;246;24078;-80
2022/04/21 03:34:56;;;;;;;4.17;3.30;;;9.70;99.90;8.90;100147;;;;575546;245;24102;-80
2022/04/21 03:37:24;;;;;;;5.60;3.43;;;9.70;99.90;8.90;100148;;;;575819;245;24137;-78
2022/04/21 03:39:52;;;;;;;4.47;3.20;;;9.70;99.90;8.90;100148;;;;575669;245;24104;-79
2022/04/21 03:42:27;;;;;;;3.70;3.20;;;9.70;99.90;8.90;100152;;;;575353;245;24089;-83
2022/04/21 03:44:53;;;;;;;6.33;3.10;;;9.70;99.90;8.90;100156;;;;575158;245;24078;-77
2022/04/21 03:47:21;;;;;;;3.87;3.00;;;9.70;99.90;9.00;100159;;;;574833;245;24153;-82
2022/04/21 03:49:49;;;;;;;4.07;2.93;;;9.80;99.90;9.00;100153;;;;574712;245;24108;-79
2022/04/21 03:52:20;;;;;;;3.83;3.10;;;9.80;99.90;9.00;100158;;;;574927;246;24069;-81
2022/04/21 03:54:48;;;;;;;4.37;3.67;;;9.80;99.90;9.00;100154;;;;574866;246;24107;-77
2022/04/21 03:57:16;;;;;;;3.17;2.87;;;9.80;99.90;9.00;100155;;;;574675;246;24081;-76
2022/04/21 03:59:44;;;;;;;5.73;2.70;;;9.90;99.90;9.10;100158;;;;574738;246;24109;-77
2022/04/21 04:02:12;;;;;;;4.23;3.30;;;9.90;99.90;9.10;100164;;;;574759;246;24088;-77
2022/04/21 04:04:40;;;;;;;4.90;3.13;;;9.90;99.90;9.10;100162;;;;583603;246;24102;-77
2022/04/21 04:12:43;;;;;;;4.43;3.37;;;10.00;99.90;9.20;100165;;;;574981;246;24124;-84
2022/04/21 04:15:11;;;;;;;7.60;3.10;;;10.00;99.90;9.30;100161;;;;582960;246;24123;-78
2022/04/21 04:17:36;;;;;;;3.13;2.50;;;10.00;99.90;9.30;100162;;;;572580;246;24097;-78
2022/04/21 04:20:11;;;;;;;4.53;3.50;;;10.00;99.90;9.30;100162;;;;574724;246;24128;-76
2022/04/21 04:22:42;;;;;;;4.30;2.97;;;10.10;99.90;9.30;100165;;;;573647;246;24087;-76
2022/04/21 04:25:09;;;;;;;6.83;3.40;;;10.10;99.90;9.40;100165;;;;573579;246;24133;-76
2022/04/21 04:27:36;;;;;;;4.33;2.87;;;10.10;99.90;9.40;100168;;;;583101;246;24157;-76
2022/04/21 04:30:02;;;;;;;4.97;3.67;;;10.30;99.90;9.60;100164;;;;574392;246;24152;-79
2022/04/21 04:32:30;;;;;;;4.73;3.57;;;10.30;99.90;9.70;100164;;;;574560;246;24167;-77
2022/04/21 04:34:59;;;;;;;5.63;3.70;;;10.40;99.90;9.90;100171;;;;574313;246;24127;-76
2022/04/21 04:37:27;;;;;;;6.30;3.53;;;10.60;99.90;10.30;100167;;;;574597;246;24149;-77
2022/04/21 04:39:55;;;;;;;7.23;4.20;;;10.90;99.90;11.10;100168;;;;574584;246;25172;-77
2022/04/21 04:42:23;;;;;;;5.67;3.47;;;11.60;99.90;12.50;100176;;;;574599;246;24127;-77
2022/04/21 04:46:34;;;;;;;7.27;3.20;;;12.90;99.90;13.90;100178;;;;574576;246;24108;-80
2022/04/21 04:47:20;;;;;;;4.13;2.93;;;14.30;99.90;15.00;100185;;;;573127;245;24074;-77
2022/04/21 04:49:48;;;;;;;4.53;3.50;;;15.50;99.90;15.00;100186;;;;576075;245;24084;-77
2022/04/21 04:52:16;;;;;;;6.33;3.30;;;15.70;99.90;14.50;100174;;;;575923;245;24085;-80
2022/04/21 04:54:44;;;;;;;5.90;3.60;;;15.50;99.90;14.20;100176;;;;575628;245;24105;-79
2022/04/21 04:57:12;;;;;;;8.83;4.17;;;15.20;99.90;13.90;100177;;;;575229;245;24073;-77
2022/04/21 04:59:40;;;;;;;4.97;4.17;;;14.80;99.90;13.90;100172;;;;575242;245;24083;-78
2022/04/21 05:02:07;;;;;;;7.43;4.53;;;14.70;99.90;15.00;100177;;;;575207;245;24111;-78
2022/04/21 05:04:38;;;;;;;7.07;3.90;;;15.50;99.90;16.00;100170;;;;575325;246;24118;-77
2022/04/21 05:07:06;;;;;;;9.40;4.33;;;16.50;99.90;17.20;100182;;;;575033;246;24148;-79
2022/04/21 05:09:35;;;;;;;10.53;4.73;;;18.90;99.90;18.40;100174;;;;575026;246;24092;-77
2022/04/21 05:12:08;;;;;;;11.00;4.63;;;19.60;97.30;19.00;100180;;;;575400;246;24089;-79
2022/04/21 05:14:33;;;;;;;6.40;4.07;;;19.60;97.20;18.70;100170;;;;575054;246;24109;-78
2022/04/21 05:17:01;;;;;;;6.50;4.30;;;19.20;93.00;18.20;100189;;;;575030;246;24078;-77
2022/04/21 05:19:33;;;;;;;7.23;4.07;;;19.20;93.00;17.90;100184;;;;575277;246;24117;-80
2022/04/21 05:21:57;;;;;;;6.00;3.97;;;18.80;93.00;18.50;100189;;;;574896;246;24084;-77
2022/04/21 05:24:25;;;;;;;7.77;4.43;;;19.20;92.50;19.30;100196;;;;574997;246;24120;-79
2022/04/21 05:26:57;;;;;;;10.03;4.67;;;19.80;90.30;18.90;100199;;;;575296;246;24092;-79
2022/04/21 05:32:08;;;;;;;14.00;5.00;;;18.40;90.00;17.40;100197;;;;574553;246;24093;-77
2022/04/21 05:34:39;;;;;;;6.77;4.57;;;18.40;89.90;16.70;100194;;;;574118;246;24090;-79
2022/04/21 05:37:08;;;;;;;11.93;4.67;;;17.70;91.00;16.10;100193;;;;574006;246;24148;-76
2022/04/21 05:39:35;;;;;;;9.43;5.07;;;17.20;91.70;15.50;100187;;;;574212;246;24105;-77
2022/04/21 05:42:00;;;;;;;10.20;4.83;;;16.50;92.80;15.10;100179;;;;573706;246;24097;-77
2022/04/21 05:44:31;;;;;;;12.00;4.67;;;16.00;94.00;14.80;100192;;;;574276;246;24087;-77
2022/04/21 05:46:55;;;;;;;7.03;4.33;;;15.60;95.30;14.80;100185;;;;573819;246;24149;-78
2022/04/21 05:49:27;;;;;;;12.63;4.27;;;15.30;97.10;14.70;100185;;;;574056;246;24131;-77
2022/04/21 05:51:55;;;;;;;8.23;4.27;;;15.30;97.10;14.70;100187;;;;578642;246;24072;-77
2022/04/21 05:54:23;;;;;;;10.43;5.17;;;15.30;97.90;14.70;100187;;;;573944;246;24116;-77
2022/04/21 05:56:51;;;;;;;12.43;4.90;;;15.30;97.90;14.80;100179;;;;574182;246;24082;-78
2022/04/21 05:59:19;;;;;;;10.33;5.00;;;15.40;98.10;15.00;100181;;;;575480;245;24095;-77
2022/04/21 06:01:46;;;;;;;13.37;5.00;;;15.60;98.00;15.40;100184;;;;575118;245;24132;-78
2022/04/21 06:04:14;;;;;;;8.47;5.13;;;15.90;97.50;15.60;100179;;;;574811;245;24143;-76
2022/04/21 06:06:42;;;;;;;8.93;4.93;;;16.10;97.20;16.10;100195;;;;574690;245;24074;-79
2022/04/21 06:09:11;;;;;;;12.73;4.63;;;16.60;96.30;17.50;100185;;;;574968;245;24090;-77
2022/04/21 06:11:42;;;;;;;7.00;4.07;;;17.70;95.90;20.20;100196;;;;574556;245;24092;-77
2022/04/21 06:14:06;;;;;;;7.40;4.83;;;20.00;92.00;22.60;100187;;;;574199;245;23232;-78
2022/04/21 06:16:34;;;;;;;6.67;4.30;;;22.50;82.40;24.70;100196;;;;574359;246;24109;-79
2022/04/21 06:19:02;;;;;;;8.53;5.10;;;24.70;71.10;26.20;100204;;;;574672;246;24070;-77
2022/04/21 06:21:30;;;;;;;7.77;4.70;;;26.40;60.40;27.20;100212;;;;574388;246;24118;-79
2022/04/21 06:23:58;;;;;;;9.47;5.13;;;27.60;57.10;28.30;100217;;;;574292;246;23144;-79
2022/04/21 06:26:27;;;;;;;8.27;5.90;;;29.60;50.20;29.20;100217;;;;574450;246;23124;-78
2022/04/21 06:28:57;;;;;;;6.03;4.32;;;29.60;50.10;29.80;100224;;;;574133;246;23148;-79
2022/04/21 06:31:22;;;;;;;6.45;4.55;;;30.30;49.20;30.40;100222;;;;574343;246;24158;-78
2022/04/21 06:33:51;;;;;;;8.75;4.57;;;31.50;45.10;30.90;100225;;;;574788;246;23097;-82
2022/04/21 06:36:19;;;;;;;8.30;4.90;;;31.40;45.10;31.70;100225;;;;574837;246;24131;-83
2022/04/21 06:38:47;;;;;;;9.98;4.80;;;32.10;44.40;32.20;100222;;;;574881;246;23126;-83
2022/04/21 06:41:15;;;;;;;7.35;4.37;;;32.70;43.60;32.90;100222;;;;574818;246;24123;-84
2022/04/21 06:49:14;;;;;;;5.47;4.25;;;34.80;40.70;34.90;100221;;;;575091;246;23132;-83
2022/04/21 06:51:44;;;;;;;12.65;4.30;;;35.30;39.40;35.10;100219;;;;575077;246;23133;-82
2022/04/21 06:54:10;;;;;;;5.95;3.20;;;35.60;38.80;35.40;100215;;;;574617;246;23121;-81
2022/04/21 06:56:38;;;;;;;6.28;3.35;;;35.90;38.10;35.40;100217;;;;574336;246;23158;-79
2022/04/21 06:59:06;;;;;;;7.70;3.50;;;36.00;37.70;35.20;100219;;;;574466;246;23138;-80
2022/04/21 07:01:35;;;;;;;5.93;3.30;;;35.90;37.50;35.50;100216;;;;574488;246;23084;-83
2022/04/21 07:04:02;;;;;;;6.03;2.97;;;35.90;37.50;35.60;100212;;;;574596;246;23095;-85
2022/04/21 07:06:30;;;;;;;6.55;3.40;;;36.00;37.00;35.60;100216;;;;574666;246;23079;-88
2022/04/21 07:09:02;;;;;;;5.25;2.75;;;36.30;36.80;35.90;100220;;;;574831;245;23145;-79
2022/04/21 07:11:26;;;;;;;6.47;2.72;;;36.20;36.70;36.50;100212;;;;575156;245;23128;-81
2022/04/21 07:13:55;;;;;;;7.93;2.90;;;36.80;36.40;37.00;100224;;;;575553;245;23160;-78
2022/04/21 07:16:22;;;;;;;5.30;2.78;;;37.20;36.30;37.40;100225;;;;575262;245;24133;-81
2022/04/21 07:18:50;;;;;;;6.05;3.10;;;37.60;35.90;38.00;100222;;;;575193;245;23084;-80
2022/04/21 07:21:18;;;;;;;3.83;2.62;;;38.30;35.20;38.50;100221;;;;575128;245;23120;-81
2022/04/21 07:23:46;;;;;;;6.62;2.70;;;38.80;34.40;38.70;100214;;;;575183;245;23088;-84
2022/04/21 07:26:15;;;;;;;7.87;4.90;;;39.00;34.20;38.90;100221;;;;575297;245;23070;-83
2022/04/21 07:28:44;;;;;;;4.57;2.90;;;39.20;34.10;39.40;100217;;;;575361;246;23080;-86
2022/04/21 07:31:10;;;;;;;7.50;3.37;;;39.60;33.80;39.70;100222;;;;574933;246;24153;-81
2022/04/21 07:33:38;;;;;;;5.45;3.05;;;40.00;33.50;39.60;100234;;;;575231;246;23145;-79
2022/04/21 07:36:06;;;;;;;3.47;3.17;;;40.10;32.90;39.30;100224;;;;574777;246;24109;-83
2022/04/21 07:38:34;;;;;;;6.45;3.53;;;39.80;32.90;39.70;100230;;;;574709;246;23182;-80
2022/04/21 07:41:01;;;;;;;5.75;2.90;;;40.00;33.00;39.80;100227;;;;574688;246;23168;-81
2022/04/21 07:43:29;;;;;;;7.35;3.33;;;40.10;32.60;39.90;100227;;;;574773;246;23164;-85
2022/04/21 07:45:57;;;;;;;8.57;3.80;;;40.20;32.50;39.50;100223;;;;574371;246;23127;-87
2022/04/21 07:49:44;;;;;;;4.47;3.53;;;40.10;32.60;39.40;100225;;;;574484;246;23134;-83
2022/04/21 07:50:56;;;;;;;4.70;3.00;;;39.90;32.40;39.10;100224;;;;572575;246;23089;-84
2022/04/21 07:53:24;;;;;;;5.78;3.17;;;39.70;32.70;39.50;100220;;;;574674;246;23102;-84
2022/04/21 07:55:52;;;;;;;6.97;3.58;;;39.70;32.90;39.80;100218;;;;574448;246;24138;-87
2022/04/21 07:58:26;;;;;;;8.43;5.50;;;40.00;32.80;40.40;100215;;;;574649;246;23092;-83
2022/04/21 08:00:49;;;;;;;6.00;2.90;;;40.60;32.20;40.70;100219;;;;574540;246;23125;-85
2022/04/21 08:03:19;;;;;;;4.75;3.00;;;41.00;31.70;40.40;100221;;;;574346;246;23115;-85
2022/04/21 08:05:48;;;;;;;7.05;3.33;;;40.90;31.10;40.40;100216;;;;574228;246;23200;-82
2022/04/21 08:08:14;;;;;;;3.47;2.62;;;40.20;31.60;39.40;100222;;;;574022;246;23146;-85
2022/04/21 08:10:42;;;;;;;3.55;2.97;;;40.20;31.30;38.60;100220;;;;574456;246;23109;-87
2022/04/21 08:13:10;;;;;;;4.45;2.87;;;39.40;32.20;38.40;100218;;;;574651;246;24112;-87
2022/04/21 08:15:38;;;;;;;4.82;3.00;;;39.10;32.20;38.20;100215;;;;574331;246;23148;-85
2022/04/21 08:18:09;;;;;;;7.10;3.17;;;39.00;32.70;38.10;100224;;;;574712;246;24108;-84
2022/04/21 08:20:38;;;;;;;6.43;3.30;;;38.80;32.90;37.80;100227;;;;574652;245;23229;-83
2022/04/21 08:23:04;;;;;;;4.70;2.90;;;38.60;33.00;37.00;100232;;;;575491;245;23144;-82
2022/04/21 08:33:51;;;;;;;5.22;3.30;;;35.90;34.40;34.70;100231;;;;575129;245;23093;-85
2022/04/21 08:36:19;;;;;;;7.57;2.90;;;35.60;34.50;34.50;100225;;;;583668;245;23149;-85
2022/04/21 08:38:48;;;;;;;14.18;3.28;;;35.00;35.10;34.20;100222;;;;574651;246;24159;-86
2022/04/21 08:41:17;;;;;;;5.53;3.00;;;34.90;35.10;34.30;100220;;;;574706;246;23102;-85
2022/04/21 08:43:44;;;;;;;4.87;2.37;;;34.90;34.90;35.00;100231;;;;574286;246;23119;-84
2022/04/21 08:46:12;;;;;;;4.85;2.40;;;35.40;34.80;35.10;100214;;;;574646;246;23095;-83
2022/04/21 08:48:40;;;;;;;3.80;2.70;;;35.70;34.20;34.80;100208;;;;574190;246;23147;-80
2022/04/21 08:51:14;;;;;;;6.87;3.42;;;35.60;34.10;34.60;100200;;;;574770;246;23138;-79
2022/04/21 08:53:40;;;;;;;7.85;2.90;;;35.30;34.70;35.00;100207;;;;580983;246;23242;-81
2022/04/21 08:56:10;;;;;;;6.37;3.20;;;35.60;34.60;35.00;100210;;;;574452;246;23092;-82
2022/04/21 08:58:35;;;;;;;7.78;2.80;;;35.80;33.70;35.00;100214;;;;574158;246;23096;-81
2022/04/21 09:01:08;;;;;;;6.32;2.60;;;35.70;33.50;35.00;100220;;;;574284;246;23101;-81
2022/04/21 09:03:35;;;;;;;2.35;2.22;;;36.00;33.70;35.30;100221;;;;574470;246;23106;-87
2022/04/21 09:06:02;;;;;;;4.03;2.72;;;36.00;33.50;35.90;100217;;;;574691;246;23113;-81
2022/04/21 09:08:34;;;;;;;7.32;3.00;;;36.70;33.00;36.20;100224;;;;574797;246;23184;-77
2022/04/21 09:11:02;;;;;;;9.20;2.60;;;36.90;32.50;35.80;100223;;;;574380;246;23123;-81
2022/04/21 09:13:39;;;;;;;5.70;2.65;;;36.80;32.40;35.20;100222;;;;574899;246;23146;-80
2022/04/21 09:16:14;;;;;;;2.95;2.75;;;36.40;32.60;35.10;100221;;;;583570;243;23099;-82
2022/04/21 09:18:40;;;;;;;3.37;2.65;;;36.20;32.50;35.40;100224;;;;574384;246;24127;-79
2022/04/21 09:21:11;;;;;;;6.53;2.80;;;36.30;32.50;35.70;100226;;;;574938;246;24122;-83
2022/04/21 09:23:39;;;;;;;6.68;2.70;;;36.60;32.60;35.80;100227;;;;583256;246;23124;-83
2022/04/21 09:26:15;;;;;;;3.72;2.45;;;36.80;32.30;35.80;100221;;;;574781;246;23121;-85
2022/04/21 09:28:43;;;;;;;4.57;2.40;;;36.90;32.20;35.80;100223;;;;574905;246;24172;-86
2022/04/21 09:31:11;;;;;;;5.72;3.35;;;37.00;32.10;35.60;100225;;;;573856;246;23106;-87
2022/04/21 09:33:44;;;;;;;6.10;2.65;;;36.90;32.40;35.70;100227;;;;576188;245;23189;-84
2022/04/21 09:36:10;;;;;;;7.20;2.80;;;37.00;31.70;35.50;100225;;;;575830;245;23115;-82
2022/04/21 09:38:38;;;;;;;5.97;3.10;;;36.90;32.00;35.60;100227;;;;575140;245;23225;-81
2022/04/21 09:41:10;;;;;;;4.53;2.90;;;36.90;31.60;35.40;100223;;;;574767;245;23110;-81
2022/04/21 09:43:42;;;;;;;4.20;2.60;;;36.90;31.60;34.50;100230;;;;574623;245;23115;-79
2022/04/21 09:46:18;;;;;;;4.50;2.72;;;36.30;32.00;34.50;100226;;;;574751;245;24090;-80
2022/04/21 09:48:48;;;;;;;5.22;3.33;;;36.30;32.00;34.80;100226;;;;575221;245;23122;-81
2022/04/21 09:51:27;;;;;;;8.10;2.80;;;36.40;32.20;34.60;100228;;;;575248;246;23106;-80
2022/04/21 09:54:02;;;;;;;4.45;3.30;;;36.40;31.80;33.90;100231;;;;575448;246;23111;-81
2022/04/21 09:56:33;;;;;;;9.85;3.05;;;35.70;32.20;33.40;100231;;;;575002;246;23114;-79
2022/04/21 09:59:01;;;;;;;3.90;2.50;;;34.80;32.30;32.70;100229;;;;575186;246;23091;-82
2022/04/21 10:01:30;;;;;;;5.03;2.72;;;34.30;32.80;32.30;100234;;;;583750;243;23100;-83
2022/04/21 10:03:59;;;;;;;3.80;2.42;;;33.70;33.40;31.70;100228;;;;575172;246;23123;-82
2022/04/21 10:06:27;;;;;;;6.50;2.90;;;33.60;33.30;30.70;100232;;;;575462;246;23087;-82
2022/04/21 10:08:55;;;;;;;4.90;2.70;;;32.80;34.30;29.40;100227;;;;575273;246;23141;-77
2022/04/21 10:11:27;;;;;;;4.05;2.25;;;31.40;35.10;27.40;100229;;;;579947;246;23097;-77
2022/04/21 10:13:54;;;;;;;17.17;3.35;;;29.60;36.70;25.80;100216;;;;574776;246;24155;-79
2022/04/21 10:16:21;;;;;;;7.13;2.97;;;27.70;39.10;24.20;100217;;;;574633;246;23106;-85
2022/04/21 10:18:52;;;;;;;7.33;2.67;;;26.00;40.80;22.70;100216;;;;574688;246;23172;-82
2022/04/21 10:21:32;;;;;;;2.20;2.10;;;22.80;45.80;21.30;100213;;;;574756;246;24112;-80
2022/04/21 10:24:04;;;;;;;10.97;2.37;;;22.70;45.70;20.40;100222;;;;574571;246;24107;-86
2022/04/21 10:26:40;;;;;;;2.43;2.10;;;21.50;48.20;19.40;100204;;;;580589;246;24100;-82
2022/04/21 10:29:23;;;;;;;2.33;1.90;;;20.50;49.70;18.60;100195;;;;574823;246;23139;-84
2022/04/21 10:32:10;;;;;;;1.80;1.70;;;19.60;51.40;17.90;100205;;;;574539;246;24128;-82
2022/04/21 10:34:40;;;;;;;3.10;2.40;;;18.20;54.00;17.30;100191;;;;573804;246;24118;-85
2022/04/21 10:37:24;;;;;;;2.60;2.10;;;18.10;54.00;16.70;100201;;;;574339;246;24098;-83
2022/04/21 10:40:18;;;;;;;2.10;1.90;;;17.50;55.80;16.10;100193;;;;574852;246;24091;-84
2022/04/21 10:42:52;;;;;;;5.40;2.10;;;16.90;57.10;15.60;100189;;;;574868;246;24097;-85
2022/04/21 10:45:26;;;;;;;6.67;1.90;;;16.30;58.70;15.10;100190;;;;575931;245;24110;-84
2022/04/21 10:48:13;;;;;;;3.27;1.97;;;15.90;60.20;14.70;100177;;;;575816;245;24084;-82
2022/04/21 10:50:41;;;;;;;2.53;2.00;;;15.10;62.90;14.50;100188;;;;575385;245;24195;-79
2022/04/21 10:58:47;;;;;;;2.13;1.63;;;14.60;65.00;13.50;100190;;;;575078;245;24139;-82
2022/04/21 11:01:24;;;;;;;6.27;1.90;;;14.20;65.50;13.30;100177;;;;574881;245;24086;-77
2022/04/21 11:04:05;;;;;;;3.97;1.80;;;13.80;68.20;13.20;100192;;;;574430;246;24102;-77
2022/04/21 11:06:41;;;;;;;6.10;1.97;;;13.70;68.20;13.10;100187;;;;574835;246;24087;-79
2022/04/21 11:09:09;;;;;;;2.37;1.67;;;13.70;67.80;12.90;100182;;;;575126;246;24074;-78
2022/04/21 11:11:45;;;;;;;6.27;1.60;;;13.40;69.80;12.70;100194;;;;571751;246;24113;-78
2022/04/21 11:14:12;;;;;;;4.77;1.83;;;13.40;69.00;12.50;100186;;;;574817;246;24130;-80
2022/04/21 11:16:45;;;;;;;5.33;1.90;;;13.20;69.50;12.40;100194;;;;574623;246;24085;-85
2022/04/21 11:19:31;;;;;;;3.67;1.73;;;12.90;71.30;12.30;100184;;;;574466;246;24103;-84
2022/04/21 11:22:07;;;;;;;2.73;1.90;;;12.90;71.30;12.10;100187;;;;574934;246;24194;-83
2022/04/21 11:25:01;;;;;;;2.93;2.10;;;12.80;71.40;12.00;100183;;;;574845;246;24070;-86
2022/04/21 11:27:25;;;;;;;2.17;2.00;;;12.60;72.10;11.80;100177;;;;574748;246;24167;-78
2022/04/21 11:29:53;;;;;;;4.67;2.37;;;12.50;72.90;11.80;100187;;;;569579;246;35236;-78
2022/04/21 11:32:21;;;;;;;2.40;1.97;;;12.40;73.70;11.70;100183;;;;573852;246;24090;-81
2022/04/21 11:35:03;;;;;;;1.97;1.77;;;12.30;74.20;11.60;100187;;;;574619;246;24074;-81
2022/04/21 11:37:50;;;;;;;1.73;1.40;;;12.30;75.00;11.60;100186;;;;574371;246;24078;-86
2022/04/21 11:40:18;;;;;;;2.47;1.83;;;12.10;74.90;11.30;100178;;;;575064;246;24077;-83
2022/04/21 11:42:52;;;;;;;2.97;1.73;;;12.00;74.80;11.20;100182;;;;574368;246;24099;-77
2022/04/21 11:45:25;;;;;;;3.10;1.77;;;11.80;76.00;11.10;100175;;;;574126;246;24171;-83
2022/04/21 11:47:53;;;;;;;2.90;1.60;;;11.80;76.00;11.00;100184;;;;583214;246;24129;-77
2022/04/21 11:50:27;;;;;;;5.03;2.33;;;11.70;76.70;11.00;100174;;;;574889;246;24078;-77
2022/04/21 11:52:55;;;;;;;10.03;1.80;;;11.70;77.50;11.00;100165;;;;575127;246;24098;-77
2022/04/21 11:55:23;;;;;;;2.03;1.67;;;11.60;78.50;11.00;100187;;;;575351;245;24114;-77
2022/04/21 11:57:51;;;;;;;1.80;1.70;;;11.60;78.70;10.90;100173;;;;581024;245;24109;-76
2022/04/21 12:06:28;;;;;;;5.00;1.67;;;11.50;78.70;10.90;100170;;;;575844;245;24088;-77
2022/04/21 12:08:20;;;;;;;4.00;2.07;;;11.50;80.50;10.80;100169;;;;575714;245;24080;-78